Time;durP1;ratioP1;P1;durP2;ratioP2;P2;SDS_P1;SDS_P2;PMS_P1;PMS_P2;Temp;Humidity;BMP_temperature;BMP_pressure;BME280_temperature;BME280_humidity;BME280_pressure;Samples;Min_cycle;Max_cycle;Signal;HPM_P1;HPM_P2
2022/08/24 00:00:13;;;;;;;6.23;5.70;;;19.80;99.90;;;;;;4990891;28;20447;-66
2022/08/24 00:02:39;;;;;;;6.07;5.10;;;19.80;99.90;;;;;;4999730;28;20210;-66
2022/08/24 00:05:06;;;;;;;5.53;5.03;;;19.70;99.90;;;;;;4992362;28;20790;-66
2022/08/24 00:07:33;;;;;;;4.97;4.57;;;19.60;99.90;;;;;;4991846;28;20179;-71
2022/08/24 00:09:59;;;;;;;5.40;4.90;;;19.60;99.90;;;;;;4998739;28;20542;-67
2022/08/24 00:12:25;;;;;;;5.23;4.80;;;19.60;99.90;;;;;;4990563;28;20462;-67
2022/08/24 00:14:52;;;;;;;5.33;4.83;;;19.60;99.90;;;;;;4989583;28;20482;-68
2022/08/24 00:17:19;;;;;;;5.93;5.10;;;19.60;99.90;;;;;;4986789;28;21050;-67
2022/08/24 00:19:45;;;;;;;5.93;5.30;;;19.60;99.90;;;;;;4995154;28;20466;-66
2022/08/24 00:22:10;;;;;;;5.57;5.07;;;19.60;99.90;;;;;;4984429;28;20503;-66
2022/08/24 00:24:36;;;;;;;12.67;11.37;;;19.60;99.90;;;;;;4992848;28;20192;-65
2022/08/24 00:27:01;;;;;;;12.13;10.90;;;19.50;99.90;;;;;;4990047;28;20603;-66
2022/08/24 00:29:27;;;;;;;6.03;5.60;;;19.40;99.90;;;;;;4991578;28;20598;-65
2022/08/24 00:31:53;;;;;;;6.90;5.23;;;19.30;99.90;;;;;;4989890;28;20211;-66
2022/08/24 00:34:18;;;;;;;5.73;5.30;;;19.40;99.90;;;;;;4992343;28;20187;-64
2022/08/24 00:36:44;;;;;;;6.20;5.73;;;19.30;99.90;;;;;;4993727;28;20562;-65
2022/08/24 00:39:11;;;;;;;5.70;5.20;;;19.30;99.90;;;;;;4992633;28;20266;-65
2022/08/24 00:41:48;;;;;;;5.87;5.37;;;19.30;99.90;;;;;;4989877;28;20462;-66
2022/08/24 00:44:15;;;;;;;5.27;4.97;;;19.30;99.90;;;;;;4996171;28;20971;-64
2022/08/24 00:46:57;;;;;;;5.50;5.10;;;19.30;99.90;;;;;;4991839;28;20800;-64
2022/08/24 00:49:44;;;;;;;5.33;5.03;;;19.20;99.90;;;;;;4994711;28;20537;-64
2022/08/24 00:52:28;;;;;;;6.00;5.47;;;19.20;99.90;;;;;;4991841;28;20450;-64
2022/08/24 00:55:01;;;;;;;5.90;5.40;;;19.10;99.90;;;;;;4998757;28;20501;-64
2022/08/24 00:57:30;;;;;;;6.60;6.00;;;19.20;99.90;;;;;;4991777;28;20517;-64
2022/08/24 01:00:06;;;;;;;6.37;5.83;;;19.10;99.90;;;;;;4995125;28;20439;-65
2022/08/24 01:02:33;;;;;;;4.97;4.63;;;19.10;99.90;;;;;;5039162;23;20484;-71
2022/08/24 01:05:02;;;;;;;5.60;5.20;;;19.00;99.90;;;;;;5027831;28;20526;-70
2022/08/24 01:07:29;;;;;;;5.27;4.87;;;19.00;99.90;;;;;;5030380;28;20440;-70
2022/08/24 01:09:59;;;;;;;4.67;4.37;;;19.00;99.90;;;;;;5036211;28;20427;-70
2022/08/24 01:12:26;;;;;;;10.50;5.63;;;18.90;99.90;;;;;;5033707;28;20484;-70
2022/08/24 01:14:54;;;;;;;5.10;4.80;;;18.90;99.90;;;;;;5019647;28;20488;-72
2022/08/24 01:20:05;;;;;;;5.27;4.87;;;18.90;99.90;;;;;;5019599;28;20448;-70
2022/08/24 01:22:59;;;;;;;6.13;5.57;;;18.90;99.90;;;;;;5036521;28;20457;-70
2022/08/24 01:25:26;;;;;;;5.83;5.43;;;18.90;99.90;;;;;;5016198;28;20844;-70
2022/08/24 01:27:58;;;;;;;7.60;5.43;;;18.80;99.90;;;;;;5023766;28;20487;-71
2022/08/24 01:30:25;;;;;;;6.30;5.23;;;18.90;99.90;;;;;;5026900;28;20495;-72
2022/08/24 01:33:02;;;;;;;6.23;5.73;;;18.60;99.90;;;;;;5022907;28;20831;-70
2022/08/24 01:35:28;;;;;;;5.30;4.90;;;18.50;99.90;;;;;;5021422;28;20499;-71
2022/08/24 01:37:59;;;;;;;6.90;5.77;;;18.50;99.90;;;;;;5035277;28;20917;-70
2022/08/24 01:40:31;;;;;;;8.93;5.50;;;18.50;99.90;;;;;;5031622;28;20438;-71
2022/08/24 01:42:57;;;;;;;6.33;5.73;;;18.50;99.90;;;;;;5036907;28;20461;-70
2022/08/24 01:45:23;;;;;;;7.27;5.60;;;18.30;99.90;;;;;;5023089;28;20443;-70
2022/08/24 01:47:48;;;;;;;7.77;5.17;;;18.20;99.90;;;;;;5020833;28;20194;-70
2022/08/24 01:50:14;;;;;;;6.33;5.83;;;18.10;99.90;;;;;;5022331;28;20228;-71
2022/08/24 01:52:42;;;;;;;5.70;5.30;;;18.10;99.90;;;;;;5019022;28;20257;-70
2022/08/24 01:55:09;;;;;;;6.30;5.20;;;18.10;99.90;;;;;;5025438;28;20660;-70
2022/08/24 01:57:34;;;;;;;5.37;4.97;;;18.10;99.90;;;;;;5027284;28;20433;-70
2022/08/24 02:00:00;;;;;;;6.93;6.37;;;18.20;99.90;;;;;;5034149;28;20933;-71
2022/08/24 02:02:28;;;;;;;6.70;6.20;;;18.40;99.90;;;;;;5029276;28;20206;-72
2022/08/24 02:04:54;;;;;;;6.23;5.70;;;18.30;99.90;;;;;;5027778;28;20441;-70
2022/08/24 02:07:19;;;;;;;6.20;5.50;;;18.40;99.90;;;;;;5030378;28;20441;-70
2022/08/24 02:09:45;;;;;;;6.20;5.80;;;18.20;99.90;;;;;;5028358;28;20542;-70
2022/08/24 02:12:11;;;;;;;6.73;6.13;;;18.20;99.90;;;;;;5024631;28;20239;-71
2022/08/24 02:14:37;;;;;;;6.60;6.00;;;18.10;99.90;;;;;;5017519;28;20468;-72
2022/08/24 02:17:05;;;;;;;7.30;6.63;;;18.00;99.90;;;;;;5028111;28;20641;-70
2022/08/24 02:19:30;;;;;;;6.57;6.00;;;18.10;99.90;;;;;;5024775;28;20496;-70
2022/08/24 02:21:56;;;;;;;6.27;5.77;;;17.90;99.90;;;;;;5024260;28;20450;-71
2022/08/24 02:24:22;;;;;;;6.90;6.40;;;18.00;99.90;;;;;;5027969;28;20209;-70
2022/08/24 02:26:48;;;;;;;6.43;5.93;;;17.90;99.90;;;;;;5028739;28;20179;-70
2022/08/24 02:29:13;;;;;;;7.00;6.40;;;18.00;99.90;;;;;;5026003;28;20459;-70
2022/08/24 02:31:39;;;;;;;6.43;5.93;;;18.00;99.90;;;;;;5031086;28;20202;-71
2022/08/24 02:34:05;;;;;;;6.07;5.67;;;18.10;99.90;;;;;;5021861;28;20254;-70
2022/08/24 02:36:30;;;;;;;6.70;6.03;;;18.10;99.90;;;;;;5022550;28;20217;-70
2022/08/24 02:38:56;;;;;;;7.17;6.47;;;17.90;99.90;;;;;;5020194;28;20278;-70
2022/08/24 02:41:24;;;;;;;6.37;5.87;;;17.90;99.90;;;;;;5024679;28;20198;-72
2022/08/24 02:43:50;;;;;;;7.60;6.93;;;17.80;99.90;;;;;;5020331;28;20193;-72
2022/08/24 02:46:17;;;;;;;6.40;5.97;;;17.80;99.90;;;;;;5022386;28;20437;-70
2022/08/24 02:48:43;;;;;;;6.77;6.27;;;17.80;99.90;;;;;;5024511;28;20182;-70
2022/08/24 02:51:21;;;;;;;11.60;6.70;;;17.70;99.90;;;;;;5030547;28;20949;-70
2022/08/24 02:53:47;;;;;;;7.50;5.83;;;17.70;99.90;;;;;;5026360;28;20748;-70
2022/08/24 02:56:12;;;;;;;7.27;6.60;;;17.70;99.90;;;;;;5024325;28;20632;-71
2022/08/24 02:58:38;;;;;;;7.70;6.90;;;17.50;99.90;;;;;;5020683;28;20690;-69
2022/08/24 03:01:03;;;;;;;7.53;6.90;;;17.40;99.90;;;;;;5026906;28;20332;-70
2022/08/24 03:03:29;;;;;;;7.70;7.07;;;17.50;99.90;;;;;;5032039;28;20186;-71
2022/08/24 03:05:54;;;;;;;7.07;6.60;;;17.50;99.90;;;;;;5021047;28;20195;-71
2022/08/24 03:08:20;;;;;;;7.87;7.20;;;17.50;99.90;;;;;;5029253;28;20663;-70
2022/08/24 03:10:46;;;;;;;7.73;7.03;;;17.40;99.90;;;;;;5030977;28;20191;-70
2022/08/24 03:13:11;;;;;;;7.80;7.13;;;17.30;99.90;;;;;;5024857;28;20198;-71
2022/08/24 03:15:37;;;;;;;9.20;7.00;;;17.40;99.90;;;;;;5031660;28;20761;-71
2022/08/24 03:18:03;;;;;;;8.47;7.67;;;17.40;99.90;;;;;;5031657;28;20209;-71
2022/08/24 03:20:29;;;;;;;7.90;7.30;;;17.40;99.90;;;;;;5031785;28;20261;-71
2022/08/24 03:22:54;;;;;;;11.70;7.00;;;17.30;99.90;;;;;;5022971;28;20199;-71
2022/08/24 03:25:23;;;;;;;11.67;7.00;;;17.10;99.90;;;;;;5029448;28;20923;-71
2022/08/24 03:27:49;;;;;;;6.73;6.33;;;17.30;99.90;;;;;;5027806;28;20638;-70
2022/08/24 03:30:16;;;;;;;6.37;5.87;;;17.30;99.90;;;;;;5034121;28;20455;-70
2022/08/24 03:32:42;;;;;;;10.17;6.73;;;17.30;99.90;;;;;;5025287;28;20457;-70
2022/08/24 03:35:09;;;;;;;6.87;6.30;;;17.30;99.90;;;;;;5028318;28;20469;-70
2022/08/24 03:37:36;;;;;;;7.40;7.00;;;17.40;99.90;;;;;;5017633;28;20187;-71
2022/08/24 03:40:02;;;;;;;7.40;6.83;;;17.40;99.90;;;;;;5031445;28;20452;-71
2022/08/24 03:42:28;;;;;;;7.43;6.87;;;17.30;99.90;;;;;;5033121;28;20466;-71
2022/08/24 03:44:53;;;;;;;7.77;7.07;;;17.60;99.90;;;;;;5032311;28;20434;-71
2022/08/24 03:47:21;;;;;;;7.40;6.80;;;17.30;99.90;;;;;;5024979;28;20186;-70
2022/08/24 03:49:47;;;;;;;7.60;7.00;;;17.50;99.90;;;;;;5025822;28;20210;-71
2022/08/24 03:52:13;;;;;;;8.87;8.07;;;17.40;99.90;;;;;;5031886;28;20451;-71
2022/08/24 03:54:38;;;;;;;8.30;7.50;;;17.10;99.90;;;;;;5032572;28;20523;-70
2022/08/24 03:57:04;;;;;;;8.27;7.57;;;17.00;99.90;;;;;;5023676;28;20174;-70
2022/08/24 03:59:30;;;;;;;8.60;7.93;;;16.90;99.90;;;;;;5024698;28;20651;-71
2022/08/24 04:01:56;;;;;;;8.90;8.20;;;16.90;99.90;;;;;;5028750;28;20210;-71
2022/08/24 04:04:23;;;;;;;8.87;8.10;;;16.90;99.90;;;;;;5028433;28;20590;-71
2022/08/24 04:06:49;;;;;;;10.63;8.90;;;17.00;99.90;;;;;;5037664;28;20908;-70
2022/08/24 04:09:15;;;;;;;9.90;8.93;;;16.90;99.90;;;;;;5027561;28;20468;-71
2022/08/24 04:11:42;;;;;;;9.17;8.37;;;16.90;99.90;;;;;;5023555;28;20221;-71
2022/08/24 04:14:08;;;;;;;8.63;7.83;;;17.00;99.90;;;;;;5028177;28;20441;-71
2022/08/24 04:16:33;;;;;;;8.23;7.63;;;16.90;99.90;;;;;;5023492;28;20461;-71
2022/08/24 04:18:59;;;;;;;9.00;8.10;;;16.90;99.90;;;;;;5017947;28;20688;-71
2022/08/24 04:21:30;;;;;;;8.90;8.30;;;16.90;99.90;;;;;;5030146;28;20206;-71
2022/08/24 04:23:56;;;;;;;9.17;8.60;;;16.90;99.90;;;;;;5027107;28;20757;-71
2022/08/24 04:26:24;;;;;;;8.37;7.77;;;16.90;99.90;;;;;;5018911;28;20469;-71
2022/08/24 04:28:50;;;;;;;8.20;7.57;;;16.80;99.90;;;;;;5011684;28;20215;-71
2022/08/24 04:31:17;;;;;;;8.93;8.23;;;16.80;99.90;;;;;;5013880;28;20461;-71
2022/08/24 04:33:44;;;;;;;9.40;8.50;;;16.80;99.90;;;;;;5031274;28;20440;-71
2022/08/24 04:36:10;;;;;;;8.87;8.27;;;16.80;99.90;;;;;;5023111;28;20465;-70
2022/08/24 04:38:36;;;;;;;10.20;9.30;;;16.90;99.90;;;;;;5023413;28;20437;-70
2022/08/24 04:41:07;;;;;;;8.50;7.90;;;16.90;99.90;;;;;;5026337;28;20444;-71
2022/08/24 04:43:33;;;;;;;9.47;8.67;;;17.00;99.90;;;;;;5023350;28;20540;-71
2022/08/24 04:46:03;;;;;;;9.23;8.60;;;16.90;99.90;;;;;;5025256;28;20523;-71
2022/08/24 04:48:28;;;;;;;11.03;8.50;;;16.80;99.90;;;;;;5013824;28;20463;-71
2022/08/24 04:50:54;;;;;;;9.17;8.47;;;16.80;99.90;;;;;;5024909;28;20436;-71
2022/08/24 04:53:19;;;;;;;10.67;8.67;;;16.80;99.90;;;;;;5020064;28;20187;-70
2022/08/24 04:55:48;;;;;;;9.43;8.60;;;16.80;99.90;;;;;;5026649;28;20353;-70
2022/08/24 04:58:15;;;;;;;8.57;7.87;;;17.00;99.90;;;;;;5026223;28;20261;-70
2022/08/24 05:00:41;;;;;;;9.83;8.83;;;17.10;99.90;;;;;;5023105;28;20529;-71
2022/08/24 05:03:07;;;;;;;10.10;8.50;;;17.10;99.90;;;;;;5025227;28;20472;-70
2022/08/24 05:05:33;;;;;;;8.80;8.23;;;17.10;99.90;;;;;;5027483;28;20456;-71
2022/08/24 05:07:59;;;;;;;9.47;8.57;;;17.40;99.90;;;;;;5026082;28;20445;-71
2022/08/24 05:10:25;;;;;;;7.63;6.97;;;17.50;99.90;;;;;;5031211;28;20535;-71
2022/08/24 05:12:50;;;;;;;8.20;7.20;;;17.80;99.90;;;;;;5017884;28;20211;-71
2022/08/24 05:15:16;;;;;;;8.70;7.90;;;18.00;99.90;;;;;;5025870;28;20221;-71
2022/08/24 05:17:42;;;;;;;8.90;8.03;;;18.20;99.90;;;;;;5026345;28;20183;-71
2022/08/24 05:20:10;;;;;;;12.43;8.57;;;18.40;99.90;;;;;;5017333;28;20178;-71
2022/08/24 05:22:36;;;;;;;8.50;7.70;;;18.50;99.90;;;;;;5034999;28;20920;-71
2022/08/24 05:25:02;;;;;;;9.00;8.20;;;18.70;99.90;;;;;;5036016;28;20826;-70
2022/08/24 05:27:27;;;;;;;10.20;8.17;;;18.70;99.90;;;;;;5018593;28;21012;-71
2022/08/24 05:29:54;;;;;;;11.73;7.67;;;19.00;99.90;;;;;;5021661;28;20437;-71
2022/08/24 05:32:19;;;;;;;7.80;7.30;;;19.00;99.90;;;;;;5030859;28;20213;-71
2022/08/24 05:34:45;;;;;;;9.27;8.53;;;19.30;99.90;;;;;;5033092;28;20456;-71
2022/08/24 05:37:11;;;;;;;9.23;8.43;;;19.50;99.90;;;;;;5027446;28;20185;-71
2022/08/24 05:39:36;;;;;;;9.23;8.53;;;19.70;99.90;;;;;;5018900;28;20178;-71
2022/08/24 05:42:02;;;;;;;9.40;8.50;;;19.90;99.90;;;;;;5041027;28;20229;-71
2022/08/24 05:44:30;;;;;;;8.40;7.70;;;20.00;99.90;;;;;;5039790;28;20189;-71
2022/08/24 05:46:57;;;;;;;8.87;8.07;;;20.00;99.90;;;;;;5039527;28;20437;-71
2022/08/24 05:49:24;;;;;;;8.70;7.90;;;20.10;99.90;;;;;;5044810;28;20443;-70
2022/08/24 05:51:50;;;;;;;8.47;7.70;;;20.30;99.90;;;;;;5040043;28;21238;-71
2022/08/24 05:54:16;;;;;;;7.90;7.20;;;20.40;99.90;;;;;;5029115;28;20972;-71
2022/08/24 05:56:41;;;;;;;7.83;7.13;;;20.60;99.90;;;;;;5029461;28;20455;-71
2022/08/24 05:59:07;;;;;;;7.57;6.77;;;20.70;99.90;;;;;;5032531;28;20180;-71
2022/08/24 06:01:33;;;;;;;9.77;6.80;;;20.90;99.90;;;;;;5040517;28;20212;-71
2022/08/24 06:03:59;;;;;;;7.73;7.03;;;21.10;99.90;;;;;;5033029;28;20186;-71
2022/08/24 06:06:25;;;;;;;7.00;6.37;;;21.20;99.90;;;;;;5036185;28;20185;-71
2022/08/24 06:08:54;;;;;;;8.07;7.03;;;21.50;99.90;;;;;;5039897;28;20433;-70
2022/08/24 06:11:26;;;;;;;6.83;6.40;;;21.50;99.90;;;;;;5040626;28;20475;-71
2022/08/24 06:13:53;;;;;;;6.93;6.13;;;21.60;99.90;;;;;;5039677;28;20444;-71
2022/08/24 06:16:20;;;;;;;8.30;6.27;;;21.70;99.90;;;;;;5037154;28;20980;-70
2022/08/24 06:18:48;;;;;;;9.67;6.70;;;21.80;99.90;;;;;;5039009;28;21029;-71
2022/08/24 06:21:17;;;;;;;9.10;6.30;;;21.90;99.90;;;;;;5041443;28;20455;-71
2022/08/24 06:23:43;;;;;;;6.73;6.17;;;22.10;99.90;;;;;;5027672;28;20452;-71
2022/08/24 06:28:54;;;;;;;7.83;5.80;;;22.40;99.90;;;;;;5022508;28;20448;-71
2022/08/24 06:31:20;;;;;;;11.53;6.47;;;22.50;99.90;;;;;;5029407;28;20455;-71
2022/08/24 06:33:46;;;;;;;6.63;6.13;;;22.70;99.90;;;;;;5031629;28;20454;-71
2022/08/24 06:36:13;;;;;;;9.50;6.80;;;22.80;99.90;;;;;;5045818;28;20586;-70
2022/08/24 06:38:38;;;;;;;7.13;6.43;;;22.80;99.90;;;;;;5014135;28;20171;-71
2022/08/24 06:41:04;;;;;;;6.30;5.70;;;22.90;99.90;;;;;;5025640;28;20449;-71
2022/08/24 06:43:30;;;;;;;6.90;6.20;;;23.20;99.90;;;;;;5020006;28;20197;-71
2022/08/24 06:45:56;;;;;;;10.40;6.10;;;23.10;99.90;;;;;;5041690;28;20438;-70
2022/08/24 06:48:23;;;;;;;7.97;5.93;;;23.30;99.90;;;;;;5045199;28;20470;-71
2022/08/24 06:50:48;;;;;;;8.60;6.40;;;23.30;99.90;;;;;;5050952;28;20449;-71
2022/08/24 06:53:14;;;;;;;8.83;8.10;;;23.50;99.90;;;;;;5045522;28;20442;-71
2022/08/24 06:55:57;;;;;;;5.90;5.40;;;23.60;99.90;;;;;;5032206;28;20209;-70
2022/08/24 06:58:26;;;;;;;5.50;5.10;;;23.80;99.90;;;;;;5044826;28;20634;-71
2022/08/24 07:00:53;;;;;;;6.20;5.60;;;24.00;99.70;;;;;;5031517;28;20478;-71
2022/08/24 07:03:19;;;;;;;6.40;4.93;;;24.00;98.60;;;;;;5030827;28;20477;-70
2022/08/24 07:05:53;;;;;;;6.33;5.23;;;24.20;97.70;;;;;;5033553;28;20468;-69
2022/08/24 07:08:19;;;;;;;5.00;4.60;;;24.40;96.80;;;;;;5036730;28;20199;-71
2022/08/24 07:10:45;;;;;;;5.83;5.33;;;24.40;95.60;;;;;;5031650;28;20449;-70
2022/08/24 07:13:12;;;;;;;5.70;5.30;;;24.50;95.40;;;;;;5041159;28;20463;-72
2022/08/24 07:15:38;;;;;;;5.73;5.33;;;24.70;95.10;;;;;;5032217;28;20233;-70
2022/08/24 07:18:08;;;;;;;5.33;4.83;;;24.80;94.60;;;;;;5034925;28;20856;-70
2022/08/24 07:20:34;;;;;;;5.43;5.00;;;24.70;93.40;;;;;;5038025;28;20469;-70
2022/08/24 07:23:00;;;;;;;5.97;5.00;;;24.70;93.80;;;;;;5041473;28;20577;-70
2022/08/24 07:25:26;;;;;;;6.53;5.93;;;24.60;93.90;;;;;;5031246;28;20449;-72
2022/08/24 07:27:51;;;;;;;7.50;4.70;;;24.60;94.00;;;;;;5044977;28;20190;-70
2022/08/24 07:30:17;;;;;;;5.70;5.20;;;24.60;93.80;;;;;;5029885;28;20260;-70
2022/08/24 07:32:43;;;;;;;7.90;4.83;;;24.70;93.60;;;;;;5040581;28;20202;-73
2022/08/24 07:35:08;;;;;;;5.40;4.67;;;24.60;93.10;;;;;;5039773;28;20251;-73
2022/08/24 07:37:34;;;;;;;4.33;4.03;;;24.30;93.50;;;;;;5033687;28;20182;-70
2022/08/24 07:40:00;;;;;;;6.27;5.00;;;24.50;93.80;;;;;;5031493;28;20205;-70
2022/08/24 07:42:25;;;;;;;5.03;4.63;;;25.00;93.30;;;;;;5021526;28;20248;-70
2022/08/24 07:44:51;;;;;;;5.37;4.97;;;25.10;92.90;;;;;;5032699;28;20212;-70
2022/08/24 07:47:18;;;;;;;5.67;4.60;;;25.30;92.80;;;;;;5043329;28;20650;-70
2022/08/24 07:49:44;;;;;;;5.67;5.17;;;25.60;92.50;;;;;;5041516;28;20191;-73
2022/08/24 07:52:09;;;;;;;6.00;5.40;;;25.40;92.30;;;;;;5034550;28;20453;-70
2022/08/24 07:54:35;;;;;;;6.30;4.60;;;25.20;92.30;;;;;;5036066;28;20724;-71
2022/08/24 07:57:03;;;;;;;7.20;4.90;;;25.40;92.20;;;;;;5031366;28;20178;-71
2022/08/24 07:59:28;;;;;;;6.20;4.80;;;25.90;92.10;;;;;;5031982;28;20171;-72
2022/08/24 08:01:54;;;;;;;5.03;4.63;;;26.30;91.40;;;;;;5022601;28;20849;-68
2022/08/24 08:04:23;;;;;;;5.87;4.73;;;26.70;90.60;;;;;;5031615;28;20550;-68
2022/08/24 08:06:48;;;;;;;10.40;9.40;;;26.90;90.60;;;;;;5043197;28;20261;-67
2022/08/24 08:09:14;;;;;;;5.93;5.33;;;27.10;90.00;;;;;;5039240;28;20552;-68
2022/08/24 08:11:39;;;;;;;5.40;5.00;;;27.40;89.00;;;;;;5034475;28;20241;-74
2022/08/24 08:14:05;;;;;;;5.97;4.80;;;27.50;88.50;;;;;;5040722;28;20542;-71
2022/08/24 08:16:31;;;;;;;11.90;5.40;;;27.50;88.20;;;;;;5024731;28;20274;-71
2022/08/24 08:18:56;;;;;;;6.33;5.77;;;27.70;88.30;;;;;;5019918;28;20179;-71
2022/08/24 08:24:15;;;;;;;5.60;5.10;;;27.80;87.90;;;;;;5028878;28;20232;-70
2022/08/24 08:26:45;;;;;;;6.90;5.77;;;28.00;88.10;;;;;;5032438;28;20435;-74
2022/08/24 08:29:12;;;;;;;5.33;4.93;;;28.00;87.10;;;;;;5012653;28;20438;-76
2022/08/24 08:31:39;;;;;;;5.40;4.90;;;28.00;86.00;;;;;;5020852;28;20476;-75
2022/08/24 08:34:05;;;;;;;7.87;5.07;;;28.00;85.50;;;;;;5024999;28;20946;-75
2022/08/24 08:36:31;;;;;;;8.80;5.00;;;28.10;84.30;;;;;;5029436;28;20523;-76
2022/08/24 08:38:57;;;;;;;6.00;5.50;;;28.30;83.70;;;;;;5039337;28;20184;-76
2022/08/24 08:41:56;;;;;;;13.93;5.63;;;28.50;81.30;;;;;;5033524;28;20458;-75
2022/08/24 08:44:45;;;;;;;6.03;5.07;;;28.70;79.50;;;;;;5028054;28;20197;-75
2022/08/24 08:47:47;;;;;;;6.07;4.37;;;28.90;76.90;;;;;;5032832;28;20451;-76
2022/08/24 08:50:27;;;;;;;5.27;3.57;;;29.20;74.50;;;;;;5030387;28;20435;-76
2022/08/24 08:53:21;;;;;;;4.13;3.73;;;29.50;70.40;;;;;;5039220;28;20538;-75
2022/08/24 08:56:02;;;;;;;6.30;2.50;;;29.60;67.70;;;;;;5037752;28;20456;-75
2022/08/24 08:59:00;;;;;;;4.63;3.50;;;30.20;63.10;;;;;;5039468;28;20462;-75
2022/08/24 09:02:08;;;;;;;3.20;3.00;;;29.90;61.00;;;;;;5032974;28;20473;-73
2022/08/24 09:05:01;;;;;;;3.87;3.43;;;30.20;59.50;;;;;;5023118;28;20578;-74
2022/08/24 09:07:38;;;;;;;3.27;2.97;;;30.40;58.50;;;;;;5023233;28;20474;-76
2022/08/24 09:10:19;;;;;;;3.23;3.03;;;30.70;58.50;;;;;;5030016;28;20836;-75
2022/08/24 09:13:06;;;;;;;3.13;2.83;;;31.00;57.50;;;;;;5041428;28;20454;-75
2022/08/24 09:15:43;;;;;;;4.00;3.20;;;31.40;56.90;;;;;;5036746;28;20464;-74
2022/08/24 09:18:26;;;;;;;3.40;2.53;;;31.70;55.90;;;;;;5032028;28;20461;-73
2022/08/24 09:21:22;;;;;;;3.53;3.27;;;32.00;54.50;;;;;;5039194;28;20438;-74
2022/08/24 09:24:06;;;;;;;2.70;2.50;;;32.50;53.00;;;;;;5035879;28;20441;-74
2022/08/24 09:26:56;;;;;;;3.47;3.17;;;32.30;52.80;;;;;;5040716;28;20439;-73
2022/08/24 09:29:52;;;;;;;3.73;2.53;;;32.80;52.40;;;;;;5033041;28;20440;-73
2022/08/24 09:32:37;;;;;;;3.33;3.00;;;32.90;52.00;;;;;;5017705;28;20455;-73
2022/08/24 09:35:07;;;;;;;2.83;2.50;;;33.70;51.20;;;;;;5037673;28;20457;-74
2022/08/24 09:37:38;;;;;;;3.03;2.83;;;34.00;50.70;;;;;;5034786;28;20468;-76
2022/08/24 09:40:35;;;;;;;5.20;2.60;;;34.20;49.60;;;;;;5030880;28;20467;-74
2022/08/24 09:43:23;;;;;;;3.20;3.00;;;34.10;49.40;;;;;;5031979;28;20451;-73
2022/08/24 09:46:26;;;;;;;3.73;3.43;;;34.40;49.30;;;;;;5036177;28;20797;-73
2022/08/24 09:49:23;;;;;;;3.43;3.13;;;34.90;47.30;;;;;;5030185;28;20980;-74
2022/08/24 09:52:14;;;;;;;3.30;3.10;;;35.10;48.10;;;;;;5019384;28;20467;-74
2022/08/24 09:55:15;;;;;;;5.07;4.03;;;35.60;47.50;;;;;;5033664;28;20445;-75
2022/08/24 09:58:08;;;;;;;3.40;3.10;;;36.60;45.60;;;;;;5034047;28;20878;-73
2022/08/24 10:00:54;;;;;;;3.43;2.87;;;36.80;44.20;;;;;;5027212;28;20433;-73
2022/08/24 10:03:36;;;;;;;4.67;3.30;;;36.30;44.30;;;;;;5029233;28;20459;-73
2022/08/24 10:06:13;;;;;;;3.53;2.60;;;36.00;44.40;;;;;;5040323;28;21047;-74
2022/08/24 10:08:56;;;;;;;2.73;2.53;;;35.40;44.70;;;;;;5034089;28;20428;-74
2022/08/24 10:11:51;;;;;;;3.47;2.87;;;36.10;44.90;;;;;;5030862;28;21798;-75
2022/08/24 10:14:52;;;;;;;3.50;2.90;;;36.80;43.70;;;;;;4973078;28;20998;-73
2022/08/24 10:17:39;;;;;;;5.20;3.00;;;37.40;42.50;;;;;;5017357;28;20528;-75
2022/08/24 10:20:38;;;;;;;3.10;2.80;;;37.70;41.60;;;;;;5018369;28;20447;-72
2022/08/24 10:23:31;;;;;;;3.10;2.90;;;37.80;42.00;;;;;;5038063;28;20456;-72
2022/08/24 10:26:41;;;;;;;2.53;2.43;;;37.30;41.60;;;;;;5042282;28;20437;-71
2022/08/24 10:29:26;;;;;;;2.70;2.50;;;37.90;41.10;;;;;;5022940;28;20455;-73
2022/08/24 10:32:25;;;;;;;3.70;2.70;;;38.30;40.30;;;;;;5032472;28;20480;-74
2022/08/24 10:35:01;;;;;;;2.90;2.70;;;38.50;40.10;;;;;;5039253;28;20487;-72
2022/08/24 10:37:50;;;;;;;3.50;3.20;;;38.80;39.90;;;;;;5038116;28;20425;-73
2022/08/24 10:40:43;;;;;;;3.47;2.67;;;38.90;39.00;;;;;;5044883;28;20519;-74
2022/08/24 10:43:41;;;;;;;3.50;3.30;;;38.00;39.20;;;;;;5033644;28;20920;-72
2022/08/24 10:46:33;;;;;;;2.77;2.57;;;37.70;40.00;;;;;;5032026;28;20462;-72
2022/08/24 10:49:05;;;;;;;3.00;2.80;;;38.00;39.70;;;;;;5040473;28;20440;-76
2022/08/24 10:51:52;;;;;;;3.00;2.80;;;39.00;38.80;;;;;;5039369;28;21182;-72
2022/08/24 10:54:19;;;;;;;2.87;2.63;;;39.40;38.10;;;;;;5020299;28;20461;-73
2022/08/24 10:56:44;;;;;;;3.30;3.00;;;39.50;38.30;;;;;;5034416;28;20470;-72
2022/08/24 10:59:13;;;;;;;3.10;2.90;;;40.20;38.50;;;;;;5020825;28;20437;-76
2022/08/24 11:01:39;;;;;;;2.80;2.70;;;40.40;37.90;;;;;;5020355;28;20249;-73
2022/08/24 11:04:05;;;;;;;3.43;3.00;;;40.30;37.50;;;;;;5028877;28;20428;-73
2022/08/24 11:06:41;;;;;;;2.97;2.77;;;39.50;37.80;;;;;;5022873;28;20580;-75
2022/08/24 11:09:12;;;;;;;3.50;3.03;;;40.00;38.20;;;;;;5018088;28;20448;-72
2022/08/24 11:11:43;;;;;;;2.73;2.63;;;40.20;37.50;;;;;;5021908;28;20808;-73
2022/08/24 11:14:27;;;;;;;3.40;3.20;;;40.00;37.60;;;;;;5018534;28;20491;-72
2022/08/24 11:17:16;;;;;;;7.83;3.30;;;40.80;36.70;;;;;;5021188;28;20437;-73
2022/08/24 11:19:42;;;;;;;3.10;2.90;;;41.30;36.40;;;;;;5018981;28;20429;-74
2022/08/24 11:22:29;;;;;;;5.00;3.53;;;41.40;36.00;;;;;;5024985;28;20464;-71
2022/08/24 11:25:02;;;;;;;3.83;2.70;;;41.30;35.80;;;;;;5042155;28;20448;-72
2022/08/24 11:27:39;;;;;;;3.50;3.20;;;41.30;36.20;;;;;;5034248;28;20476;-73
2022/08/24 11:30:10;;;;;;;2.70;2.50;;;41.50;35.40;;;;;;5017105;28;20781;-68
2022/08/24 11:32:45;;;;;;;3.17;2.97;;;42.00;35.00;;;;;;5015327;28;21025;-72
2022/08/24 11:35:45;;;;;;;4.63;2.40;;;42.40;33.90;;;;;;5018873;28;20835;-73
2022/08/24 11:38:17;;;;;;;3.80;2.90;;;41.90;34.20;;;;;;5032932;28;20443;-75
2022/08/24 11:41:14;;;;;;;2.77;2.67;;;42.20;34.20;;;;;;5023819;28;20445;-72
2022/08/24 11:44:02;;;;;;;3.30;3.10;;;42.40;34.10;;;;;;5039796;28;20440;-74
2022/08/24 11:46:35;;;;;;;3.10;2.90;;;42.00;34.10;;;;;;5029272;28;21147;-72
2022/08/24 11:49:35;;;;;;;3.00;2.70;;;41.60;34.40;;;;;;5033787;28;20444;-73
2022/08/24 11:52:54;;;;;;;2.20;2.10;;;42.30;34.30;;;;;;5040106;28;20562;-73
2022/08/24 11:55:32;;;;;;;2.90;2.70;;;42.40;34.10;;;;;;5046345;28;20499;-73
2022/08/24 11:58:09;;;;;;;2.70;2.50;;;43.50;34.40;;;;;;5029872;28;20531;-72
2022/08/24 12:01:03;;;;;;;2.83;2.63;;;44.40;33.40;;;;;;5028692;28;20437;-72
2022/08/24 12:03:43;;;;;;;2.60;2.40;;;44.10;34.10;;;;;;5014530;28;20466;-73
2022/08/24 12:06:43;;;;;;;3.07;2.90;;;45.00;33.90;;;;;;5033850;28;20483;-72
2022/08/24 12:09:39;;;;;;;2.63;2.53;;;46.00;32.70;;;;;;5031524;28;20443;-72
2022/08/24 12:12:11;;;;;;;4.63;2.80;;;45.20;32.00;;;;;;5038188;28;20892;-73
2022/08/24 12:14:43;;;;;;;2.47;2.37;;;45.90;32.10;;;;;;5036914;28;20428;-73
2022/08/24 12:17:25;;;;;;;2.80;2.60;;;46.50;31.70;;;;;;5033481;28;20431;-72
2022/08/24 12:19:57;;;;;;;2.50;2.40;;;46.20;30.80;;;;;;5040297;28;20432;-73
2022/08/24 12:22:23;;;;;;;2.80;2.70;;;45.40;30.90;;;;;;5041338;28;20456;-72
2022/08/24 12:24:59;;;;;;;3.00;2.63;;;46.00;31.00;;;;;;5038437;28;20974;-72
2022/08/24 12:27:34;;;;;;;2.27;2.17;;;45.60;30.50;;;;;;5042744;28;20446;-72
2022/08/24 12:30:02;;;;;;;3.00;2.80;;;45.90;30.30;;;;;;5038825;28;20489;-73
2022/08/24 12:32:52;;;;;;;5.43;2.60;;;46.50;30.10;;;;;;5031006;28;20510;-73
2022/08/24 12:35:25;;;;;;;3.40;2.30;;;47.10;29.60;;;;;;5018058;28;20472;-72
2022/08/24 12:37:58;;;;;;;2.30;2.20;;;46.90;29.70;;;;;;5032598;28;20434;-73
2022/08/24 12:40:41;;;;;;;2.73;2.53;;;46.30;29.80;;;;;;5035532;28;20528;-73
2022/08/24 12:43:24;;;;;;;2.60;2.40;;;46.30;30.30;;;;;;5029717;28;20968;-73
2022/08/24 12:45:50;;;;;;;3.40;3.00;;;45.70;29.30;;;;;;5039927;28;20440;-72
2022/08/24 12:48:29;;;;;;;3.40;2.70;;;44.30;30.00;;;;;;5036657;28;20821;-73
2022/08/24 12:51:13;;;;;;;2.43;2.23;;;44.30;30.20;;;;;;5027858;28;21022;-74
2022/08/24 12:54:00;;;;;;;2.00;1.90;;;45.10;30.40;;;;;;5032532;28;20441;-72
2022/08/24 12:56:44;;;;;;;3.03;2.83;;;45.90;30.00;;;;;;5035255;28;20878;-74
2022/08/24 12:59:28;;;;;;;2.67;2.50;;;45.90;29.50;;;;;;5023813;28;20491;-73
2022/08/24 13:02:27;;;;;;;2.63;2.53;;;46.20;29.70;;;;;;5043515;28;20467;-73
2022/08/24 13:04:52;;;;;;;2.93;2.73;;;47.00;29.00;;;;;;5038809;28;20517;-73
2022/08/24 13:07:18;;;;;;;2.97;2.77;;;46.60;28.70;;;;;;5041942;28;20493;-73
2022/08/24 13:09:55;;;;;;;3.03;2.50;;;46.30;28.80;;;;;;5035721;28;20186;-73
2022/08/24 13:12:32;;;;;;;2.10;2.00;;;45.80;28.80;;;;;;5042353;28;20212;-74
2022/08/24 13:15:26;;;;;;;2.53;2.43;;;46.50;29.10;;;;;;5037536;28;20472;-73
2022/08/24 13:18:07;;;;;;;3.30;3.03;;;46.30;28.50;;;;;;5025372;28;20425;-73
2022/08/24 13:20:35;;;;;;;2.43;2.33;;;46.30;28.50;;;;;;5034793;28;20424;-72